PWSweather.com
Personal Weather Stations
Station Observations
EMBEZON
Select State..., Den HaagNL 2497DJ

Select State...Den HaagNL 2497DJ

Lat: 52.039545, Lon: 4.3632006

Elevation: 0

Station Type: OS / Weewx / RaspberryPI

http://www.embezon.nl/data/weer/

Latest ConditionsUpdated 8:40:00 AM GMT+01:01 Monday, May 20, 2019
Currently Today's Max Today's Min Today's Average
Temperature 55.6°F13.1°C 55.6°F13.1°C 53.4°F11.9°C 54.1°F12.3°C
Dew Point 55.0°F12.8°C 55.0°F12.8°C 52.9°F11.6°C 53.5°F11.9°C
Winds 3.3 mph NNW5.3 kmh NNW 4.3 mph -6.9 kmh - - 2.2 mph 3.5 kmh
Wind Gusts 7.2 mph11.6 kmh 8.5 mph13.7 kmh - -
Humidity 98% 98% 98% 98%
Pressure 29.80 in1009.1 mb 29.80 in1009.1 mb 29.74 in1007.1 mb -
Hour Temp Dew Point Humidity Winds Wind Gusts Pressure Precip Precip Rate Daily Precip Total
08:40 AM 55.6°F13.1°C 55.0°F12.8°C 98% 3.3 mph NNW5.3 kmh NNW 7.2 mph11.6 kmh 29.80 in1009.1 mb 0.00 in0.0 mm 0.00 in0.0 mm 0.00 in0.0 mm
08:35 AM 55.5°F13.1°C 55.0°F12.8°C 98% 3.0 mph NW4.8 kmh NW 8.1 mph13.0 kmh 29.80 in1009.1 mb 0.00 in0.0 mm 0.00 in0.0 mm 0.00 in0.0 mm
08:30 AM 55.3°F12.9°C 54.7°F12.6°C 98% 3.0 mph NW4.8 kmh NW 4.7 mph7.6 kmh 29.80 in1009.1 mb 0.00 in0.0 mm 0.00 in0.0 mm 0.00 in0.0 mm
08:25 AM 55.0°F12.8°C 54.5°F12.5°C 98% 3.9 mph NW6.3 kmh NW 6.5 mph10.5 kmh 29.80 in1009.1 mb 0.00 in0.0 mm 0.00 in0.0 mm 0.00 in0.0 mm
08:20 AM 55.0°F12.8°C 54.5°F12.5°C 98% 3.3 mph NNW5.3 kmh NNW 4.7 mph7.6 kmh 29.80 in1009.1 mb 0.00 in0.0 mm 0.00 in0.0 mm 0.00 in0.0 mm
08:15 AM 55.0°F12.8°C 54.5°F12.5°C 98% 3.0 mph W4.8 kmh W 4.3 mph6.9 kmh 29.80 in1009.1 mb 0.00 in0.0 mm 0.00 in0.0 mm 0.00 in0.0 mm
08:10 AM 54.9°F12.7°C 54.4°F12.4°C 98% 3.1 mph NW5.0 kmh NW 5.4 mph8.7 kmh 29.80 in1009.1 mb 0.00 in0.0 mm 0.00 in0.0 mm 0.00 in0.0 mm
08:05 AM 54.9°F12.7°C 54.3°F12.4°C 98% 4.0 mph NW6.4 kmh NW 7.4 mph11.9 kmh 29.80 in1009.1 mb 0.00 in0.0 mm 0.00 in0.0 mm 0.00 in0.0 mm
08:00 AM 54.9°F12.7°C 54.3°F12.4°C 98% 4.1 mph W6.6 kmh W 6.5 mph10.5 kmh 29.80 in1009.1 mb 0.00 in0.0 mm 0.00 in0.0 mm 0.00 in0.0 mm
07:55 AM 54.9°F12.7°C 54.3°F12.4°C 98% 3.9 mph WNW6.3 kmh WNW 7.8 mph12.6 kmh 29.80 in1009.1 mb 0.00 in0.0 mm 0.00 in0.0 mm 0.00 in0.0 mm
07:50 AM 54.6°F12.6°C 54.0°F12.2°C 98% 3.6 mph WNW5.8 kmh WNW 7.2 mph11.6 kmh 29.80 in1009.1 mb 0.00 in0.0 mm 0.00 in0.0 mm 0.00 in0.0 mm
07:45 AM 54.4°F12.4°C 53.8°F12.1°C 98% 3.6 mph WNW5.8 kmh WNW 5.6 mph9.0 kmh 29.80 in1009.1 mb 0.00 in0.0 mm 0.00 in0.0 mm 0.00 in0.0 mm
07:40 AM 54.3°F12.4°C 53.8°F12.1°C 98% 3.4 mph NW5.5 kmh NW 4.9 mph7.9 kmh 29.77 in1008.1 mb 0.00 in0.0 mm 0.00 in0.0 mm 0.00 in0.0 mm
07:35 AM 54.3°F12.4°C 53.8°F12.1°C 98% 2.5 mph W4.0 kmh W 4.7 mph7.6 kmh 29.77 in1008.1 mb 0.00 in0.0 mm 0.00 in0.0 mm 0.00 in0.0 mm
07:30 AM 54.1°F12.3°C 53.6°F12.0°C 98% 2.5 mph NW4.0 kmh NW 4.7 mph7.6 kmh 29.77 in1008.1 mb 0.00 in0.0 mm 0.00 in0.0 mm 0.00 in0.0 mm
07:25 AM 54.0°F12.2°C 53.5°F11.9°C 98% 2.0 mph NW3.2 kmh NW 6.0 mph9.7 kmh 29.79 in1008.8 mb 0.00 in0.0 mm 0.00 in0.0 mm 0.00 in0.0 mm
07:20 AM 54.0°F12.2°C 53.4°F11.9°C 98% 1.9 mph NW3.1 kmh NW 2.9 mph4.7 kmh 29.80 in1009.1 mb 0.00 in0.0 mm 0.00 in0.0 mm 0.00 in0.0 mm
07:15 AM 54.0°F12.2°C 53.4°F11.9°C 98% 2.8 mph NW4.5 kmh NW 3.4 mph5.5 kmh 29.80 in1009.1 mb 0.00 in0.0 mm 0.00 in0.0 mm 0.00 in0.0 mm
07:10 AM 54.0°F12.2°C 53.4°F11.9°C 98% 2.3 mph NNW3.7 kmh NNW 3.1 mph5.0 kmh 29.80 in1009.1 mb 0.00 in0.0 mm 0.00 in0.0 mm 0.00 in0.0 mm
07:05 AM 54.0°F12.2°C 53.4°F11.9°C 98% 2.9 mph NW4.7 kmh NW 4.0 mph6.4 kmh 29.80 in1009.1 mb 0.00 in0.0 mm 0.00 in0.0 mm 0.00 in0.0 mm
07:00 AM 54.0°F12.2°C 53.4°F11.9°C 98% 2.5 mph NW4.0 kmh NW 4.0 mph6.4 kmh 29.80 in1009.1 mb 0.00 in0.0 mm 0.00 in0.0 mm 0.00 in0.0 mm
06:55 AM 54.0°F12.2°C 53.4°F11.9°C 98% 3.3 mph NW5.3 kmh NW 4.9 mph7.9 kmh 29.77 in1008.1 mb 0.00 in0.0 mm 0.00 in0.0 mm 0.00 in0.0 mm
06:50 AM 54.0°F12.2°C 53.4°F11.9°C 98% 3.4 mph NW5.5 kmh NW 6.5 mph10.5 kmh 29.77 in1008.1 mb 0.00 in0.0 mm 0.00 in0.0 mm 0.00 in0.0 mm
06:45 AM 54.0°F12.2°C 53.4°F11.9°C 98% 3.0 mph NW4.8 kmh NW 5.4 mph8.7 kmh 29.77 in1008.1 mb 0.00 in0.0 mm 0.00 in0.0 mm 0.00 in0.0 mm
06:40 AM 54.0°F12.2°C 53.4°F11.9°C 98% 3.2 mph W5.1 kmh W 8.5 mph13.7 kmh 29.77 in1008.1 mb 0.00 in0.0 mm 0.00 in0.0 mm 0.00 in0.0 mm
06:35 AM 54.0°F12.2°C 53.4°F11.9°C 98% 3.1 mph N5.0 kmh N 3.8 mph6.1 kmh 29.77 in1008.1 mb 0.00 in0.0 mm 0.00 in0.0 mm 0.00 in0.0 mm
06:30 AM 54.0°F12.2°C 53.4°F11.9°C 98% 2.4 mph NNW3.9 kmh NNW 4.9 mph7.9 kmh 29.77 in1008.1 mb 0.00 in0.0 mm 0.00 in0.0 mm 0.00 in0.0 mm
06:25 AM 54.1°F12.3°C 53.6°F12.0°C 98% 2.1 mph NW3.4 kmh NW 3.1 mph5.0 kmh 29.77 in1008.1 mb 0.00 in0.0 mm 0.00 in0.0 mm 0.00 in0.0 mm
06:20 AM 54.1°F12.3°C 53.6°F12.0°C 98% 2.4 mph NW3.9 kmh NW 5.4 mph8.7 kmh 29.77 in1008.1 mb 0.00 in0.0 mm 0.00 in0.0 mm 0.00 in0.0 mm
06:15 AM 54.1°F12.3°C 53.6°F12.0°C 98% 2.6 mph NW4.2 kmh NW 3.6 mph5.8 kmh 29.77 in1008.1 mb 0.00 in0.0 mm 0.00 in0.0 mm 0.00 in0.0 mm
06:10 AM 54.2°F12.3°C 53.6°F12.0°C 98% 1.9 mph NW3.1 kmh NW 2.5 mph4.0 kmh 29.77 in1008.1 mb 0.00 in0.0 mm 0.00 in0.0 mm 0.00 in0.0 mm
06:05 AM 54.3°F12.4°C 53.7°F12.1°C 98% 2.3 mph WNW3.7 kmh WNW 3.6 mph5.8 kmh 29.77 in1008.1 mb 0.00 in0.0 mm 0.00 in0.0 mm 0.00 in0.0 mm
06:00 AM 54.2°F12.3°C 53.7°F12.1°C 98% 2.0 mph NW3.2 kmh NW 3.6 mph5.8 kmh 29.77 in1008.1 mb 0.00 in0.0 mm 0.00 in0.0 mm 0.00 in0.0 mm
05:55 AM 54.3°F12.4°C 53.8°F12.1°C 98% 0.9 mph NW1.4 kmh NW 3.6 mph5.8 kmh 29.77 in1008.1 mb 0.00 in0.0 mm 0.00 in0.0 mm 0.00 in0.0 mm
05:50 AM 54.3°F12.4°C 53.8°F12.1°C 98% 0.9 mph NNW1.4 kmh NNW 2.0 mph3.2 kmh 29.77 in1008.1 mb 0.00 in0.0 mm 0.00 in0.0 mm 0.00 in0.0 mm
05:45 AM 54.3°F12.4°C 53.8°F12.1°C 98% 1.1 mph NNW1.8 kmh NNW 4.3 mph6.9 kmh 29.77 in1008.1 mb 0.00 in0.0 mm 0.00 in0.0 mm 0.00 in0.0 mm
05:40 AM 54.3°F12.4°C 53.8°F12.1°C 98% 2.6 mph WNW4.2 kmh WNW 3.1 mph5.0 kmh 29.77 in1008.1 mb 0.00 in0.0 mm 0.00 in0.0 mm 0.00 in0.0 mm
05:35 AM 54.1°F12.3°C 53.6°F12.0°C 98% 0.6 mph NNW1.0 kmh NNW 2.7 mph4.3 kmh 29.77 in1008.1 mb 0.00 in0.0 mm 0.00 in0.0 mm 0.00 in0.0 mm
05:30 AM 54.1°F12.3°C 53.6°F12.0°C 98% 1.6 mph NNW2.6 kmh NNW 2.7 mph4.3 kmh 29.77 in1008.1 mb 0.00 in0.0 mm 0.00 in0.0 mm 0.00 in0.0 mm
05:25 AM 54.1°F12.3°C 53.6°F12.0°C 98% 3.1 mph NNW5.0 kmh NNW 4.5 mph7.2 kmh 29.77 in1008.1 mb 0.00 in0.0 mm 0.00 in0.0 mm 0.00 in0.0 mm
05:20 AM 54.1°F12.3°C 53.6°F12.0°C 98% 2.7 mph NW4.3 kmh NW 5.6 mph9.0 kmh 29.77 in1008.1 mb 0.00 in0.0 mm 0.00 in0.0 mm 0.00 in0.0 mm
05:15 AM 54.1°F12.3°C 53.6°F12.0°C 98% 2.6 mph NW4.2 kmh NW 3.8 mph6.1 kmh 29.77 in1008.1 mb 0.00 in0.0 mm 0.00 in0.0 mm 0.00 in0.0 mm
05:10 AM 54.1°F12.3°C 53.6°F12.0°C 98% 2.1 mph NNW3.4 kmh NNW 6.0 mph9.7 kmh 29.77 in1008.1 mb 0.00 in0.0 mm 0.00 in0.0 mm 0.00 in0.0 mm
05:05 AM 54.1°F12.3°C 53.6°F12.0°C 98% 2.5 mph NW4.0 kmh NW 3.1 mph5.0 kmh 29.77 in1008.1 mb 0.00 in0.0 mm 0.00 in0.0 mm 0.00 in0.0 mm
05:00 AM 54.1°F12.3°C 53.6°F12.0°C 98% 2.8 mph NW4.5 kmh NW 5.6 mph9.0 kmh 29.77 in1008.1 mb 0.00 in0.0 mm 0.00 in0.0 mm 0.00 in0.0 mm
04:55 AM 54.1°F12.3°C 53.6°F12.0°C 98% 1.2 mph NNW1.9 kmh NNW 4.3 mph6.9 kmh 29.77 in1008.1 mb 0.00 in0.0 mm 0.00 in0.0 mm 0.00 in0.0 mm
04:50 AM 54.1°F12.3°C 53.6°F12.0°C 98% 2.5 mph NW4.0 kmh NW 3.8 mph6.1 kmh 29.77 in1008.1 mb 0.00 in0.0 mm 0.00 in0.0 mm 0.00 in0.0 mm
04:45 AM 54.1°F12.3°C 53.6°F12.0°C 98% 1.6 mph NW2.6 kmh NW 4.0 mph6.4 kmh 29.77 in1008.1 mb 0.00 in0.0 mm 0.00 in0.0 mm 0.00 in0.0 mm
04:40 AM 54.1°F12.3°C 53.6°F12.0°C 98% 1.4 mph NW2.3 kmh NW 4.7 mph7.6 kmh 29.77 in1008.1 mb 0.00 in0.0 mm 0.00 in0.0 mm 0.00 in0.0 mm
04:35 AM 54.1°F12.3°C 53.6°F12.0°C 98% 2.4 mph NW3.9 kmh NW 3.6 mph5.8 kmh 29.77 in1008.1 mb 0.00 in0.0 mm 0.00 in0.0 mm 0.00 in0.0 mm
04:30 AM 54.1°F12.3°C 53.6°F12.0°C 98% 1.2 mph NW1.9 kmh NW 2.7 mph4.3 kmh 29.77 in1008.1 mb 0.00 in0.0 mm 0.00 in0.0 mm 0.00 in0.0 mm
04:25 AM 54.1°F12.3°C 53.6°F12.0°C 98% 2.0 mph NW3.2 kmh NW 3.8 mph6.1 kmh 29.77 in1008.1 mb 0.00 in0.0 mm 0.00 in0.0 mm 0.00 in0.0 mm
04:20 AM 54.1°F12.3°C 53.6°F12.0°C 98% 1.8 mph NW2.9 kmh NW 3.6 mph5.8 kmh 29.77 in1008.1 mb 0.00 in0.0 mm 0.00 in0.0 mm 0.00 in0.0 mm
04:15 AM 54.1°F12.3°C 53.6°F12.0°C 98% 1.0 mph NW1.6 kmh NW 2.2 mph3.5 kmh 29.77 in1008.1 mb 0.00 in0.0 mm 0.00 in0.0 mm 0.00 in0.0 mm
04:10 AM 54.1°F12.3°C 53.6°F12.0°C 98% 1.7 mph W2.7 kmh W 3.6 mph5.8 kmh 29.77 in1008.1 mb 0.00 in0.0 mm 0.00 in0.0 mm 0.00 in0.0 mm
04:05 AM 54.1°F12.3°C 53.6°F12.0°C 98% 1.9 mph W3.1 kmh W 4.3 mph6.9 kmh 29.77 in1008.1 mb 0.00 in0.0 mm 0.00 in0.0 mm 0.00 in0.0 mm
04:00 AM 54.1°F12.3°C 53.5°F11.9°C 98% 2.1 mph NW3.4 kmh NW 3.8 mph6.1 kmh 29.77 in1008.1 mb 0.00 in0.0 mm 0.00 in0.0 mm 0.00 in0.0 mm
03:55 AM 54.0°F12.2°C 53.4°F11.9°C 98% 2.0 mph NW3.2 kmh NW 3.6 mph5.8 kmh 29.77 in1008.1 mb 0.00 in0.0 mm 0.00 in0.0 mm 0.00 in0.0 mm
03:50 AM 54.0°F12.2°C 53.5°F11.9°C 98% 1.8 mph NNW2.9 kmh NNW 2.9 mph4.7 kmh 29.77 in1008.1 mb 0.00 in0.0 mm 0.00 in0.0 mm 0.00 in0.0 mm
03:45 AM 54.1°F12.3°C 53.6°F12.0°C 98% 2.4 mph NW3.9 kmh NW 3.6 mph5.8 kmh 29.77 in1008.1 mb 0.00 in0.0 mm 0.00 in0.0 mm 0.00 in0.0 mm
03:40 AM 54.1°F12.3°C 53.6°F12.0°C 98% 1.2 mph WNW1.9 kmh WNW 2.9 mph4.7 kmh 29.77 in1008.1 mb 0.00 in0.0 mm 0.00 in0.0 mm 0.00 in0.0 mm
03:35 AM 54.1°F12.3°C 53.6°F12.0°C 98% 1.5 mph NW2.4 kmh NW 4.0 mph6.4 kmh 29.77 in1008.1 mb 0.00 in0.0 mm 0.00 in0.0 mm 0.00 in0.0 mm
03:30 AM 54.1°F12.3°C 53.6°F12.0°C 98% 0.7 mph NW1.1 kmh NW 2.0 mph3.2 kmh 29.77 in1008.1 mb 0.00 in0.0 mm 0.00 in0.0 mm 0.00 in0.0 mm
03:25 AM 54.0°F12.2°C 53.5°F11.9°C 98% 0.7 mph NW1.1 kmh NW 2.9 mph4.7 kmh 29.77 in1008.1 mb 0.00 in0.0 mm 0.00 in0.0 mm 0.00 in0.0 mm
03:20 AM 54.0°F12.2°C 53.4°F11.9°C 98% 0.7 mph NW1.1 kmh NW 2.5 mph4.0 kmh 29.77 in1008.1 mb 0.00 in0.0 mm 0.00 in0.0 mm 0.00 in0.0 mm
03:15 AM 54.0°F12.2°C 53.4°F11.9°C 98% 1.7 mph NW2.7 kmh NW 2.9 mph4.7 kmh 29.77 in1008.1 mb 0.00 in0.0 mm 0.00 in0.0 mm 0.00 in0.0 mm
03:10 AM 54.0°F12.2°C 53.4°F11.9°C 98% 2.6 mph NW4.2 kmh NW 3.6 mph5.8 kmh 29.77 in1008.1 mb 0.00 in0.0 mm 0.00 in0.0 mm 0.00 in0.0 mm
03:05 AM 54.0°F12.2°C 53.4°F11.9°C 98% 2.6 mph W4.2 kmh W 3.8 mph6.1 kmh 29.77 in1008.1 mb 0.00 in0.0 mm 0.00 in0.0 mm 0.00 in0.0 mm
03:00 AM 53.8°F12.1°C 53.2°F11.8°C 98% 2.7 mph NW4.3 kmh NW 5.8 mph9.3 kmh 29.77 in1008.1 mb 0.00 in0.0 mm 0.00 in0.0 mm 0.00 in0.0 mm
02:55 AM 54.0°F12.2°C 53.4°F11.9°C 98% 2.1 mph NW3.4 kmh NW 6.3 mph10.1 kmh 29.77 in1008.1 mb 0.00 in0.0 mm 0.00 in0.0 mm 0.00 in0.0 mm
02:50 AM 54.0°F12.2°C 53.4°F11.9°C 98% 0.9 mph NW1.4 kmh NW 3.8 mph6.1 kmh 29.77 in1008.1 mb 0.00 in0.0 mm 0.00 in0.0 mm 0.00 in0.0 mm
02:45 AM 53.8°F12.1°C 53.2°F11.8°C 98% 1.7 mph NW2.7 kmh NW 2.7 mph4.3 kmh 29.77 in1008.1 mb 0.00 in0.0 mm 0.00 in0.0 mm 0.00 in0.0 mm
02:40 AM 53.8°F12.1°C 53.2°F11.8°C 98% 2.1 mph N3.4 kmh N 3.4 mph5.5 kmh 29.77 in1008.1 mb 0.00 in0.0 mm 0.00 in0.0 mm 0.00 in0.0 mm
02:35 AM 53.9°F12.2°C 53.3°F11.8°C 98% 2.1 mph NW3.4 kmh NW 4.3 mph6.9 kmh 29.77 in1008.1 mb 0.00 in0.0 mm 0.00 in0.0 mm 0.00 in0.0 mm
02:30 AM 53.9°F12.2°C 53.4°F11.9°C 98% 1.3 mph W2.1 kmh W 3.1 mph5.0 kmh 29.77 in1008.1 mb 0.00 in0.0 mm 0.00 in0.0 mm 0.00 in0.0 mm
02:25 AM 53.9°F12.2°C 53.4°F11.9°C 98% 0.2 mph 0.3 kmh 3.4 mph5.5 kmh 29.77 in1008.1 mb 0.00 in0.0 mm 0.00 in0.0 mm 0.00 in0.0 mm
02:20 AM 53.8°F12.1°C 53.2°F11.8°C 98% 0.6 mph NW1.0 kmh NW 2.5 mph4.0 kmh 29.77 in1008.1 mb 0.00 in0.0 mm 0.00 in0.0 mm 0.00 in0.0 mm
02:15 AM 53.8°F12.1°C 53.2°F11.8°C 98% 2.6 mph W4.2 kmh W 5.4 mph8.7 kmh 29.77 in1008.1 mb 0.00 in0.0 mm 0.00 in0.0 mm 0.00 in0.0 mm
02:10 AM 53.8°F12.1°C 53.2°F11.8°C 98% 1.2 mph NNW1.9 kmh NNW 3.8 mph6.1 kmh 29.77 in1008.1 mb 0.00 in0.0 mm 0.00 in0.0 mm 0.00 in0.0 mm
02:05 AM 53.8°F12.1°C 53.2°F11.8°C 98% 1.4 mph W2.3 kmh W 2.0 mph3.2 kmh 29.77 in1008.1 mb 0.00 in0.0 mm 0.00 in0.0 mm 0.00 in0.0 mm
02:00 AM 53.8°F12.1°C 53.2°F11.8°C 98% 1.9 mph WNW3.1 kmh WNW 2.5 mph4.0 kmh 29.77 in1008.1 mb 0.00 in0.0 mm 0.00 in0.0 mm 0.00 in0.0 mm
01:55 AM 53.8°F12.1°C 53.2°F11.8°C 98% 1.1 mph NW1.8 kmh NW 2.0 mph3.2 kmh 29.77 in1008.1 mb 0.00 in0.0 mm 0.00 in0.0 mm 0.00 in0.0 mm
01:50 AM 53.8°F12.1°C 53.2°F11.8°C 98% 2.0 mph W3.2 kmh W 2.9 mph4.7 kmh 29.77 in1008.1 mb 0.00 in0.0 mm 0.00 in0.0 mm 0.00 in0.0 mm
01:45 AM 53.8°F12.1°C 53.2°F11.8°C 98% 0.7 mph W1.1 kmh W 3.1 mph5.0 kmh 29.77 in1008.1 mb 0.00 in0.0 mm 0.00 in0.0 mm 0.00 in0.0 mm
01:40 AM 53.7°F12.1°C 53.2°F11.8°C 98% 1.5 mph NW2.4 kmh NW 3.4 mph5.5 kmh 29.77 in1008.1 mb 0.00 in0.0 mm 0.00 in0.0 mm 0.00 in0.0 mm
01:35 AM 53.6°F12.0°C 53.0°F11.7°C 98% 0.9 mph WNW1.4 kmh WNW 1.6 mph2.6 kmh 29.77 in1008.1 mb 0.00 in0.0 mm 0.00 in0.0 mm 0.00 in0.0 mm
01:30 AM 53.6°F12.0°C 53.0°F11.7°C 98% 1.3 mph NNW2.1 kmh NNW 2.5 mph4.0 kmh 29.77 in1008.1 mb 0.00 in0.0 mm 0.00 in0.0 mm 0.00 in0.0 mm
01:25 AM 53.6°F12.0°C 53.0°F11.7°C 98% 0.8 mph NNW1.3 kmh NNW 4.3 mph6.9 kmh 29.74 in1007.1 mb 0.00 in0.0 mm 0.00 in0.0 mm 0.00 in0.0 mm
01:20 AM 53.4°F11.9°C 52.9°F11.6°C 98% 1.7 mph NNW2.7 kmh NNW 2.7 mph4.3 kmh 29.74 in1007.1 mb 0.00 in0.0 mm 0.00 in0.0 mm 0.00 in0.0 mm
01:15 AM 53.4°F11.9°C 52.9°F11.6°C 98% 2.8 mph NW4.5 kmh NW 4.5 mph7.2 kmh 29.74 in1007.1 mb 0.00 in0.0 mm 0.00 in0.0 mm 0.00 in0.0 mm
01:10 AM 53.5°F11.9°C 52.9°F11.6°C 98% 3.0 mph NW4.8 kmh NW 6.0 mph9.7 kmh 29.76 in1007.8 mb 0.00 in0.0 mm 0.00 in0.0 mm 0.00 in0.0 mm
01:05 AM 53.6°F12.0°C 53.0°F11.7°C 98% 2.1 mph WNW3.4 kmh WNW 4.3 mph6.9 kmh 29.77 in1008.1 mb 0.00 in0.0 mm 0.00 in0.0 mm 0.00 in0.0 mm
01:00 AM 53.6°F12.0°C 53.0°F11.7°C 98% 2.5 mph NW4.0 kmh NW 3.8 mph6.1 kmh 29.77 in1008.1 mb 0.00 in0.0 mm 0.00 in0.0 mm 0.00 in0.0 mm
12:55 AM 53.6°F12.0°C 53.0°F11.7°C 98% 1.3 mph WNW2.1 kmh WNW 2.2 mph3.5 kmh 29.77 in1008.1 mb 0.00 in0.0 mm 0.00 in0.0 mm 0.00 in0.0 mm
12:50 AM 53.6°F12.0°C 53.0°F11.7°C 98% 1.6 mph NNW2.6 kmh NNW 4.9 mph7.9 kmh 29.77 in1008.1 mb 0.00 in0.0 mm 0.00 in0.0 mm 0.00 in0.0 mm
12:45 AM 53.6°F12.0°C 53.0°F11.7°C 98% 1.9 mph NW3.1 kmh NW 3.1 mph5.0 kmh 29.77 in1008.1 mb 0.00 in0.0 mm 0.00 in0.0 mm 0.00 in0.0 mm
12:40 AM 53.6°F12.0°C 53.0°F11.7°C 98% 0.4 mph NW0.6 kmh NW 1.3 mph2.1 kmh 29.77 in1008.1 mb 0.00 in0.0 mm 0.00 in0.0 mm 0.00 in0.0 mm
12:35 AM 53.6°F12.0°C 53.0°F11.7°C 98% 1.9 mph NW3.1 kmh NW 3.4 mph5.5 kmh 29.77 in1008.1 mb 0.00 in0.0 mm 0.00 in0.0 mm 0.00 in0.0 mm
12:30 AM 53.4°F11.9°C 52.9°F11.6°C 98% 1.9 mph NNW3.1 kmh NNW 3.8 mph6.1 kmh 29.77 in1008.1 mb 0.00 in0.0 mm 0.00 in0.0 mm 0.00 in0.0 mm
12:25 AM 53.4°F11.9°C 52.9°F11.6°C 98% 2.4 mph NW3.9 kmh NW 4.3 mph6.9 kmh 29.77 in1008.1 mb 0.00 in0.0 mm 0.00 in0.0 mm 0.00 in0.0 mm
12:20 AM 53.6°F12.0°C 53.0°F11.7°C 98% 3.2 mph WNW5.1 kmh WNW 4.5 mph7.2 kmh 29.77 in1008.1 mb 0.00 in0.0 mm 0.00 in0.0 mm 0.00 in0.0 mm
12:15 AM 53.6°F12.0°C 53.0°F11.7°C 98% 2.6 mph NW4.2 kmh NW 3.8 mph6.1 kmh 29.77 in1008.1 mb 0.00 in0.0 mm 0.00 in0.0 mm 0.00 in0.0 mm
12:10 AM 53.6°F12.0°C 53.0°F11.7°C 98% 3.0 mph NNW4.8 kmh NNW 6.0 mph9.7 kmh 29.77 in1008.1 mb 0.00 in0.0 mm 0.00 in0.0 mm 0.00 in0.0 mm
12:05 AM 53.6°F12.0°C 53.0°F11.7°C 98% 4.3 mph NW6.9 kmh NW 5.4 mph8.7 kmh 29.77 in1008.1 mb 0.00 in0.0 mm 0.00 in0.0 mm 0.00 in0.0 mm
12:00 AM 53.6°F12.0°C 53.0°F11.7°C 98% 3.5 mph NW5.6 kmh NW 5.6 mph9.0 kmh 29.77 in1008.1 mb 0.00 in0.0 mm 0.00 in0.0 mm 0.00 in0.0 mm